Time;durP1;ratioP1;P1;durP2;ratioP2;P2;SDS_P1;SDS_P2;PMS_P1;PMS_P2;Temp;Humidity;BMP_temperature;BMP_pressure;BME280_temperature;BME280_humidity;BME280_pressure;Samples;Min_cycle;Max_cycle;Signal;HPM_P1;HPM_P2
2023/06/05 00:00:41;;;;;;;3.90;2.27;;;12.60;99.90;;;;;;5042765;28;20278;-53
2023/06/05 00:03:07;;;;;;;6.27;2.27;;;12.50;99.90;;;;;;5012812;28;20199;-54
2023/06/05 00:05:36;;;;;;;4.83;2.20;;;12.50;99.90;;;;;;5039182;28;20241;-52
2023/06/05 00:08:02;;;;;;;5.00;2.47;;;12.50;99.90;;;;;;5043149;28;20299;-50
2023/06/05 00:10:29;;;;;;;2.67;2.33;;;12.50;99.90;;;;;;5045686;28;20245;-50
2023/06/05 00:12:58;;;;;;;4.83;2.53;;;12.50;99.90;;;;;;5042118;28;20248;-51
2023/06/05 00:15:25;;;;;;;5.23;2.60;;;12.50;99.90;;;;;;5041110;28;20219;-52
2023/06/05 00:17:52;;;;;;;5.70;3.00;;;12.50;99.90;;;;;;5014902;28;20277;-50
2023/06/05 00:20:19;;;;;;;5.70;3.40;;;12.40;99.90;;;;;;5031480;28;20196;-50
2023/06/05 00:22:47;;;;;;;5.53;2.70;;;12.30;99.90;;;;;;5035130;28;20203;-53
2023/06/05 00:25:13;;;;;;;4.03;2.73;;;12.30;99.90;;;;;;5044926;28;20262;-50
2023/06/05 00:27:41;;;;;;;4.13;2.93;;;12.30;99.90;;;;;;5044479;28;20215;-52
2023/06/05 00:30:10;;;;;;;3.27;2.60;;;12.20;99.90;;;;;;5027881;28;20716;-52
2023/06/05 00:32:37;;;;;;;3.97;2.60;;;12.20;99.90;;;;;;5037815;28;20203;-53
2023/06/05 00:35:05;;;;;;;3.47;2.77;;;12.10;99.90;;;;;;5021926;28;20286;-53
2023/06/05 00:37:33;;;;;;;5.17;2.77;;;12.10;99.90;;;;;;5038376;28;20295;-54
2023/06/05 00:40:01;;;;;;;4.13;2.60;;;12.00;99.90;;;;;;5044388;28;20262;-52
2023/06/05 00:42:27;;;;;;;4.73;2.47;;;11.90;99.90;;;;;;5042202;28;20209;-54
2023/06/05 00:44:55;;;;;;;4.67;2.60;;;11.90;99.90;;;;;;5034375;28;20192;-56
2023/06/05 00:47:23;;;;;;;6.17;2.83;;;11.90;99.90;;;;;;5043564;28;20246;-51
2023/06/05 00:49:52;;;;;;;4.77;2.33;;;11.90;99.90;;;;;;5021443;28;21027;-56
2023/06/05 00:52:19;;;;;;;5.17;2.47;;;11.90;99.90;;;;;;5039749;28;20563;-50
2023/06/05 00:54:46;;;;;;;3.70;2.70;;;11.90;99.90;;;;;;5033965;28;20910;-54
2023/06/05 00:57:14;;;;;;;4.97;2.70;;;11.80;99.90;;;;;;5039831;28;20215;-52
2023/06/05 00:59:44;;;;;;;3.57;2.47;;;11.70;99.90;;;;;;5032157;28;20694;-55
2023/06/05 01:02:13;;;;;;;5.83;3.17;;;11.70;99.90;;;;;;5041006;28;20197;-55
2023/06/05 01:04:43;;;;;;;3.57;3.27;;;11.70;99.90;;;;;;5020896;28;20195;-51
2023/06/05 01:07:10;;;;;;;7.47;3.20;;;11.70;99.90;;;;;;5030895;28;20223;-51
2023/06/05 01:09:38;;;;;;;4.93;3.33;;;11.60;99.90;;;;;;5039017;28;20210;-54
2023/06/05 01:12:12;;;;;;;4.43;3.20;;;11.60;99.90;;;;;;5037353;28;20196;-52
2023/06/05 01:14:45;;;;;;;4.20;3.07;;;11.50;99.90;;;;;;5038207;28;20202;-54
2023/06/05 01:17:14;;;;;;;5.30;3.10;;;11.50;99.90;;;;;;5042967;28;20219;-49
2023/06/05 01:19:43;;;;;;;5.80;3.50;;;11.40;99.90;;;;;;5041343;28;20199;-54
2023/06/05 01:22:12;;;;;;;4.50;2.70;;;11.40;99.90;;;;;;5023991;28;20265;-51
2023/06/05 01:24:41;;;;;;;3.30;3.00;;;11.40;99.90;;;;;;5029956;28;20234;-54
2023/06/05 01:27:15;;;;;;;3.90;2.90;;;11.40;99.90;;;;;;5037510;28;20234;-55
2023/06/05 01:29:53;;;;;;;3.97;2.57;;;11.40;99.90;;;;;;5041153;28;20241;-54
2023/06/05 01:32:26;;;;;;;2.90;2.70;;;11.40;99.90;;;;;;5044919;28;20188;-53
2023/06/05 01:34:54;;;;;;;3.17;2.87;;;11.50;99.90;;;;;;5035678;28;20191;-53
2023/06/05 01:37:24;;;;;;;3.00;2.70;;;11.40;99.90;;;;;;5021914;28;20709;-54
2023/06/05 01:39:55;;;;;;;4.83;3.00;;;11.40;99.90;;;;;;5024459;28;20182;-49
2023/06/05 01:42:24;;;;;;;3.23;3.00;;;11.30;99.90;;;;;;5041580;28;20222;-49
2023/06/05 01:44:51;;;;;;;5.80;3.27;;;11.20;99.90;;;;;;5033193;28;20190;-51
2023/06/05 01:47:21;;;;;;;5.83;2.80;;;11.20;99.90;;;;;;5042305;28;20227;-53
2023/06/05 01:49:48;;;;;;;4.87;2.83;;;11.20;99.90;;;;;;5039466;28;20246;-53
2023/06/05 01:52:15;;;;;;;4.77;2.97;;;11.20;99.90;;;;;;5018260;28;20323;-54
2023/06/05 01:54:42;;;;;;;4.30;2.77;;;11.20;99.90;;;;;;5017653;28;20339;-54
2023/06/05 01:57:10;;;;;;;4.60;2.87;;;11.20;99.90;;;;;;5043969;28;20215;-52
2023/06/05 01:59:37;;;;;;;3.50;3.10;;;11.10;99.90;;;;;;5037873;28;20223;-50
2023/06/05 02:02:05;;;;;;;3.43;2.83;;;11.10;99.90;;;;;;5042381;28;20650;-53
2023/06/05 02:04:32;;;;;;;3.97;3.10;;;11.10;99.90;;;;;;5039337;28;20202;-55
2023/06/05 02:07:03;;;;;;;4.37;3.17;;;11.00;99.90;;;;;;5036310;28;20724;-55
2023/06/05 02:09:32;;;;;;;5.37;3.40;;;11.00;99.90;;;;;;5011196;28;20670;-54
2023/06/05 02:12:03;;;;;;;3.37;3.07;;;11.00;99.90;;;;;;5039249;28;20188;-51
2023/06/05 02:14:35;;;;;;;6.67;3.73;;;11.00;99.90;;;;;;5056595;28;20196;-53
2023/06/05 02:17:05;;;;;;;6.50;3.70;;;11.00;99.90;;;;;;5041835;28;20284;-49
2023/06/05 02:19:32;;;;;;;6.73;4.00;;;11.00;99.90;;;;;;5037332;28;20278;-51
2023/06/05 02:21:59;;;;;;;4.07;3.43;;;11.00;99.90;;;;;;5034136;28;20187;-54
2023/06/05 02:24:27;;;;;;;8.60;4.17;;;11.00;99.90;;;;;;5016504;28;20218;-53
2023/06/05 02:26:54;;;;;;;5.67;3.60;;;11.00;99.90;;;;;;5041035;28;21045;-54
2023/06/05 02:29:21;;;;;;;5.90;4.07;;;11.00;99.90;;;;;;5042809;28;20199;-55
2023/06/05 02:31:49;;;;;;;5.60;4.43;;;11.00;99.90;;;;;;5040876;28;20184;-53
2023/06/05 02:34:17;;;;;;;5.63;3.77;;;10.90;99.90;;;;;;5036431;28;20191;-53
2023/06/05 02:36:45;;;;;;;5.20;4.00;;;11.00;99.90;;;;;;5034005;28;20203;-54
2023/06/05 02:39:12;;;;;;;5.80;4.20;;;10.90;99.90;;;;;;5020099;28;20204;-54
2023/06/05 02:42:00;;;;;;;4.17;3.77;;;10.90;99.90;;;;;;5038051;28;20205;-49
2023/06/05 02:44:27;;;;;;;5.63;4.10;;;10.90;99.90;;;;;;5041186;28;20541;-51
2023/06/05 02:46:56;;;;;;;4.40;3.50;;;10.80;99.90;;;;;;5039944;28;20211;-56
2023/06/05 02:49:23;;;;;;;4.77;3.30;;;10.80;99.90;;;;;;5033182;28;20225;-55
2023/06/05 02:51:50;;;;;;;5.03;3.27;;;10.70;99.90;;;;;;5034758;28;20923;-53
2023/06/05 02:54:16;;;;;;;4.57;3.97;;;10.70;99.90;;;;;;5018681;28;20249;-53
2023/06/05 02:57:06;;;;;;;4.43;3.53;;;10.70;99.90;;;;;;5028417;28;21008;-53
2023/06/05 02:59:39;;;;;;;6.07;4.07;;;10.60;99.90;;;;;;5038156;28;20559;-54
2023/06/05 03:02:12;;;;;;;6.23;4.10;;;10.50;99.90;;;;;;5032917;28;20860;-54
2023/06/05 03:04:42;;;;;;;5.30;4.60;;;10.50;99.90;;;;;;5036901;28;20722;-53
2023/06/05 03:07:12;;;;;;;8.67;4.97;;;10.40;99.90;;;;;;5040049;28;20919;-55
2023/06/05 03:09:42;;;;;;;8.20;4.07;;;10.50;99.90;;;;;;5035411;28;20215;-51
2023/06/05 03:12:09;;;;;;;6.93;5.27;;;10.50;99.90;;;;;;5019081;28;20930;-53
2023/06/05 03:14:36;;;;;;;5.10;4.70;;;10.50;99.90;;;;;;5038523;28;20223;-55
2023/06/05 03:17:03;;;;;;;6.17;4.97;;;10.50;99.90;;;;;;5030647;28;20277;-54
2023/06/05 03:19:31;;;;;;;9.17;4.80;;;10.50;99.90;;;;;;5039593;28;20187;-56
2023/06/05 03:22:02;;;;;;;6.00;4.70;;;10.50;99.90;;;;;;5038133;28;20195;-54
2023/06/05 03:24:30;;;;;;;7.80;5.23;;;10.50;99.90;;;;;;5042881;28;20241;-49
2023/06/05 03:27:02;;;;;;;5.30;4.67;;;10.40;99.90;;;;;;5019704;28;20227;-53
2023/06/05 03:29:29;;;;;;;8.17;4.87;;;10.40;99.90;;;;;;5037051;28;20298;-55
2023/06/05 03:31:57;;;;;;;6.10;4.47;;;10.40;99.90;;;;;;5035836;28;20195;-55
2023/06/05 03:34:25;;;;;;;5.40;4.90;;;10.40;99.90;;;;;;5045703;28;20219;-55
2023/06/05 03:36:58;;;;;;;6.13;4.70;;;10.40;99.90;;;;;;5042366;28;20219;-52
2023/06/05 03:39:26;;;;;;;5.23;4.60;;;10.40;99.90;;;;;;5045148;28;20677;-52
2023/06/05 03:41:54;;;;;;;6.83;5.13;;;10.40;99.90;;;;;;5020203;28;20210;-52
2023/06/05 03:44:24;;;;;;;5.50;4.43;;;10.40;99.90;;;;;;5022822;28;20256;-53
2023/06/05 03:46:51;;;;;;;7.23;4.53;;;10.40;99.90;;;;;;5038800;28;20338;-54
2023/06/05 03:49:20;;;;;;;6.50;4.70;;;10.40;99.90;;;;;;5039931;28;20195;-51
2023/06/05 03:51:49;;;;;;;6.73;5.20;;;10.40;99.90;;;;;;5043467;28;20665;-51
2023/06/05 03:54:18;;;;;;;8.17;5.47;;;10.50;99.90;;;;;;5044465;28;20195;-49
2023/06/05 03:56:49;;;;;;;9.13;5.20;;;10.50;99.90;;;;;;5029415;28;20215;-52
2023/06/05 03:59:19;;;;;;;7.50;4.93;;;10.50;99.90;;;;;;5023488;28;20219;-52
2023/06/05 04:01:51;;;;;;;5.43;4.93;;;10.50;99.90;;;;;;5026240;28;20207;-55
2023/06/05 04:04:18;;;;;;;5.93;4.53;;;10.50;99.90;;;;;;5038809;28;20196;-55
2023/06/05 04:06:45;;;;;;;8.97;5.17;;;10.50;99.90;;;;;;5041121;28;20223;-54
2023/06/05 04:09:13;;;;;;;8.13;5.77;;;10.50;99.90;;;;;;5042148;28;20226;-49
2023/06/05 04:11:45;;;;;;;7.43;6.63;;;10.60;99.90;;;;;;5040948;28;20239;-55
2023/06/05 04:14:12;;;;;;;9.47;6.23;;;10.50;99.90;;;;;;5013386;28;20215;-55
2023/06/05 04:16:42;;;;;;;10.73;6.80;;;10.50;99.90;;;;;;5025523;28;20333;-50
2023/06/05 04:19:13;;;;;;;8.87;6.40;;;10.50;99.90;;;;;;5040812;28;20203;-52
2023/06/05 04:21:43;;;;;;;9.03;6.70;;;10.60;99.90;;;;;;5051077;28;20211;-50
2023/06/05 04:24:11;;;;;;;8.07;6.73;;;10.60;99.90;;;;;;5044709;28;20195;-51
2023/06/05 04:26:41;;;;;;;9.10;6.93;;;10.60;99.90;;;;;;5035208;28;20212;-54
2023/06/05 04:29:13;;;;;;;12.13;7.17;;;10.70;99.90;;;;;;5005823;28;20203;-52
2023/06/05 04:31:42;;;;;;;11.80;7.00;;;10.70;99.90;;;;;;5031154;28;20199;-49
2023/06/05 04:34:09;;;;;;;10.60;7.97;;;10.70;99.90;;;;;;5035930;28;20249;-47
2023/06/05 04:36:37;;;;;;;12.47;7.97;;;10.70;99.90;;;;;;5039668;28;20724;-54
2023/06/05 04:39:07;;;;;;;9.93;7.20;;;10.80;99.90;;;;;;5032844;28;20210;-51
2023/06/05 04:41:36;;;;;;;15.47;7.23;;;10.80;99.90;;;;;;5039474;28;20554;-51
2023/06/05 04:44:03;;;;;;;9.73;6.20;;;10.90;99.90;;;;;;5019053;28;20481;-50
2023/06/05 04:46:33;;;;;;;7.23;6.53;;;10.90;99.90;;;;;;5026871;28;21201;-48
2023/06/05 04:49:00;;;;;;;10.00;6.67;;;11.00;99.90;;;;;;5040181;28;20195;-48
2023/06/05 04:51:27;;;;;;;12.87;7.73;;;11.00;99.90;;;;;;5027227;28;20298;-51
2023/06/05 04:53:55;;;;;;;9.53;7.30;;;11.10;99.90;;;;;;5030328;28;20253;-54
2023/06/05 04:56:24;;;;;;;12.60;7.20;;;11.10;99.90;;;;;;5038713;28;20230;-54
2023/06/05 04:58:53;;;;;;;13.20;7.53;;;11.10;99.90;;;;;;5027214;28;20223;-50
2023/06/05 05:01:20;;;;;;;23.37;8.87;;;11.20;99.90;;;;;;5032875;28;20685;-51
2023/06/05 05:03:49;;;;;;;11.43;7.27;;;11.20;99.90;;;;;;5036765;28;20203;-53
2023/06/05 05:06:17;;;;;;;13.60;7.47;;;11.30;99.90;;;;;;5028944;28;20254;-51
2023/06/05 05:08:46;;;;;;;12.40;7.73;;;11.30;99.90;;;;;;5030829;28;20305;-48
2023/06/05 05:11:13;;;;;;;8.47;6.80;;;11.30;99.90;;;;;;5046932;28;20273;-51
2023/06/05 05:13:41;;;;;;;10.60;6.80;;;11.40;99.90;;;;;;5042594;28;20188;-48
2023/06/05 05:16:11;;;;;;;12.67;7.87;;;11.40;99.90;;;;;;5012601;28;20222;-51
2023/06/05 05:18:41;;;;;;;12.93;7.80;;;11.50;99.90;;;;;;5035718;28;20211;-50
2023/06/05 05:21:10;;;;;;;15.18;9.10;;;11.50;99.90;;;;;;5032523;28;20459;-54
2023/06/05 05:23:36;;;;;;;8.63;7.00;;;11.80;99.90;;;;;;5050279;28;20282;-55
2023/06/05 05:26:04;;;;;;;10.80;6.87;;;11.80;99.90;;;;;;5046647;28;20190;-52
2023/06/05 05:28:31;;;;;;;8.83;6.83;;;11.80;99.90;;;;;;5047482;28;20219;-50
2023/06/05 05:31:00;;;;;;;12.48;7.82;;;11.90;99.90;;;;;;5016708;28;20474;-47
2023/06/05 05:33:27;;;;;;;9.80;7.47;;;12.20;99.90;;;;;;5029453;28;20191;-47
2023/06/05 05:35:55;;;;;;;9.45;7.28;;;12.10;99.90;;;;;;5035065;28;20459;-51
2023/06/05 05:38:25;;;;;;;11.18;8.05;;;12.20;99.90;;;;;;5024639;28;20439;-46
2023/06/05 05:40:51;;;;;;;10.80;7.93;;;12.50;99.90;;;;;;5039809;28;20527;-52
2023/06/05 05:43:20;;;;;;;9.00;7.20;;;12.80;99.90;;;;;;5043893;28;20253;-49
2023/06/05 05:45:50;;;;;;;9.93;6.63;;;12.60;99.90;;;;;;5030831;28;20573;-52
2023/06/05 05:48:18;;;;;;;10.03;6.63;;;12.60;99.90;;;;;;5031210;28;20205;-52
2023/06/05 05:50:46;;;;;;;8.57;6.20;;;12.60;99.90;;;;;;5034090;28;20251;-53
2023/06/05 05:53:12;;;;;;;11.23;5.93;;;12.60;99.90;;;;;;5036234;28;20742;-51
2023/06/05 05:55:41;;;;;;;10.93;6.40;;;12.70;99.90;;;;;;5034120;28;20243;-51
2023/06/05 05:58:08;;;;;;;12.80;6.63;;;12.70;99.90;;;;;;5039644;28;20276;-54
2023/06/05 06:00:37;;;;;;;8.67;6.53;;;12.80;99.90;;;;;;5041190;28;20187;-53
2023/06/05 06:03:06;;;;;;;10.40;6.07;;;12.90;99.90;;;;;;5008352;28;20207;-51
2023/06/05 06:05:34;;;;;;;13.67;6.23;;;12.90;99.90;;;;;;5034472;28;20202;-52
2023/06/05 06:08:03;;;;;;;12.67;5.60;;;13.00;99.90;;;;;;5033261;28;20211;-50
2023/06/05 06:10:31;;;;;;;7.97;5.70;;;13.10;99.90;;;;;;5038366;28;20199;-55
2023/06/05 06:13:00;;;;;;;9.83;6.03;;;13.10;99.90;;;;;;5040867;28;20195;-51
2023/06/05 06:15:27;;;;;;;8.10;5.97;;;13.20;99.90;;;;;;5038495;28;20194;-51
2023/06/05 06:17:57;;;;;;;7.90;5.60;;;13.30;99.90;;;;;;5010114;28;20586;-49
2023/06/05 06:20:24;;;;;;;7.37;5.70;;;13.40;99.90;;;;;;5037329;28;20214;-55
2023/06/05 06:22:51;;;;;;;6.67;5.97;;;13.50;99.90;;;;;;5035374;28;20210;-55
2023/06/05 06:25:21;;;;;;;7.73;5.67;;;13.50;99.90;;;;;;5030848;28;20199;-53
2023/06/05 06:27:49;;;;;;;6.63;5.77;;;13.60;99.90;;;;;;5034335;28;20215;-53
2023/06/05 06:30:17;;;;;;;17.40;6.93;;;13.70;99.90;;;;;;5041736;28;20242;-49
2023/06/05 06:32:44;;;;;;;7.53;5.27;;;13.80;99.90;;;;;;5015842;28;20207;-49
2023/06/05 06:35:13;;;;;;;8.53;5.60;;;13.80;99.90;;;;;;5038781;28;20665;-47
2023/06/05 06:37:41;;;;;;;7.30;5.30;;;13.90;99.90;;;;;;5053031;28;20249;-49
2023/06/05 06:40:10;;;;;;;8.90;5.50;;;14.00;99.90;;;;;;5044960;28;20279;-51
2023/06/05 06:42:38;;;;;;;7.27;5.40;;;14.10;99.90;;;;;;5024630;28;20200;-48
2023/06/05 06:45:35;;;;;;;6.87;5.57;;;14.20;99.90;;;;;;5036979;28;20559;-49
2023/06/05 06:48:02;;;;;;;10.07;5.03;;;14.30;99.90;;;;;;5025333;28;20284;-48
2023/06/05 06:50:30;;;;;;;9.73;5.50;;;14.40;99.90;;;;;;5038466;28;20195;-52
2023/06/05 06:52:56;;;;;;;8.37;5.37;;;14.50;99.90;;;;;;5040900;28;20192;-54
2023/06/05 06:55:23;;;;;;;6.70;4.77;;;14.50;99.90;;;;;;5049721;28;20602;-53
2023/06/05 06:57:50;;;;;;;9.57;5.40;;;14.70;99.90;;;;;;5018836;28;20990;-52
2023/06/05 07:00:20;;;;;;;6.60;5.07;;;14.80;99.90;;;;;;5043361;28;20195;-49
2023/06/05 07:02:48;;;;;;;5.57;4.70;;;14.80;99.90;;;;;;5025302;28;20922;-47
2023/06/05 07:05:15;;;;;;;6.90;4.67;;;14.90;99.90;;;;;;5042201;28;20666;-50
2023/06/05 07:07:42;;;;;;;5.43;4.30;;;15.00;99.90;;;;;;5042905;28;20304;-50
2023/06/05 07:10:10;;;;;;;5.17;4.33;;;15.00;99.90;;;;;;5039688;28;20677;-50
2023/06/05 07:12:37;;;;;;;5.77;4.23;;;15.10;99.90;;;;;;5017795;28;20198;-48
2023/06/05 07:15:05;;;;;;;4.20;3.80;;;15.20;99.90;;;;;;5040128;28;20210;-53
2023/06/05 07:17:33;;;;;;;7.13;4.53;;;15.30;99.90;;;;;;5033851;28;20222;-50
2023/06/05 07:20:01;;;;;;;5.27;4.00;;;15.40;99.90;;;;;;5033391;28;20195;-48
2023/06/05 07:22:28;;;;;;;4.50;3.83;;;15.40;99.90;;;;;;5050688;28;20567;-50
2023/06/05 07:24:55;;;;;;;7.77;4.30;;;15.50;99.90;;;;;;5034276;28;20467;-47
2023/06/05 07:27:22;;;;;;;5.07;3.70;;;15.60;99.90;;;;;;5031306;28;20234;-50
2023/06/05 07:29:50;;;;;;;5.53;3.47;;;15.60;99.90;;;;;;5024080;28;20287;-51
2023/06/05 07:32:16;;;;;;;6.03;3.53;;;15.70;99.90;;;;;;5042589;28;20198;-49
2023/06/05 07:34:43;;;;;;;6.17;4.23;;;15.80;99.90;;;;;;5013546;28;20203;-52
2023/06/05 07:37:11;;;;;;;5.40;3.50;;;15.80;99.90;;;;;;5033240;28;20211;-47
2023/06/05 07:39:39;;;;;;;5.13;3.50;;;15.90;99.90;;;;;;5027658;28;20889;-46
2023/06/05 07:42:07;;;;;;;4.27;3.37;;;15.90;99.90;;;;;;5027299;28;20673;-46
2023/06/05 07:44:33;;;;;;;6.80;3.77;;;16.00;99.90;;;;;;5041089;28;20203;-49
2023/06/05 07:47:00;;;;;;;5.80;3.23;;;16.20;99.90;;;;;;5040487;28;20227;-48
2023/06/05 07:49:31;;;;;;;5.40;3.40;;;16.20;99.90;;;;;;5015770;28;20207;-50
2023/06/05 07:51:58;;;;;;;5.90;3.47;;;16.30;99.90;;;;;;5020635;28;20191;-51
2023/06/05 07:54:26;;;;;;;7.33;3.97;;;16.40;99.90;;;;;;5033031;28;20194;-51
2023/06/05 07:56:53;;;;;;;6.17;3.20;;;16.50;99.90;;;;;;5040518;28;20317;-45
2023/06/05 07:59:24;;;;;;;6.33;3.13;;;16.60;99.90;;;;;;5034558;28;20218;-50
2023/06/05 08:01:52;;;;;;;4.23;3.37;;;16.80;99.90;;;;;;5036050;28;20367;-52
2023/06/05 08:04:24;;;;;;;4.83;3.03;;;;;;;;;;5013121;28;20766;-48
2023/06/05 08:06:51;;;;;;;4.13;3.00;;;16.90;99.90;;;;;;5020955;28;20223;-49
2023/06/05 08:09:19;;;;;;;3.60;2.90;;;17.00;99.90;;;;;;5039740;28;20294;-52
2023/06/05 08:11:48;;;;;;;5.03;3.57;;;17.00;99.90;;;;;;5051534;28;20195;-48
2023/06/05 08:14:15;;;;;;;4.80;2.77;;;17.10;99.90;;;;;;5028852;28;20318;-53
2023/06/05 08:16:41;;;;;;;4.30;3.10;;;17.30;99.90;;;;;;5039414;28;20223;-50
2023/06/05 08:19:08;;;;;;;4.20;3.17;;;17.20;99.90;;;;;;5035919;28;20375;-52
2023/06/05 08:21:36;;;;;;;5.83;2.80;;;17.20;99.90;;;;;;5026315;28;20229;-47
2023/06/05 08:24:03;;;;;;;4.37;3.07;;;17.40;99.90;;;;;;5038275;28;20204;-52
2023/06/05 08:26:31;;;;;;;6.63;3.10;;;17.50;99.90;;;;;;5045200;28;20269;-50
2023/06/05 08:29:00;;;;;;;5.03;2.97;;;17.60;99.90;;;;;;5026100;28;20273;-47
2023/06/05 08:31:27;;;;;;;3.07;2.77;;;17.70;99.90;;;;;;5044580;28;20238;-46
2023/06/05 08:33:53;;;;;;;3.37;2.50;;;17.70;99.90;;;;;;5030256;28;20280;-48
2023/06/05 08:36:21;;;;;;;5.73;2.27;;;17.90;99.90;;;;;;5018142;28;20204;-46
2023/06/05 08:38:48;;;;;;;6.97;3.30;;;17.90;99.90;;;;;;5034488;28;20681;-52
2023/06/05 08:41:15;;;;;;;3.47;2.40;;;18.00;99.90;;;;;;5041033;28;20205;-53
2023/06/05 08:43:44;;;;;;;4.47;2.70;;;18.00;99.90;;;;;;5034166;28;20600;-48
2023/06/05 08:46:13;;;;;;;3.30;2.40;;;18.30;99.90;;;;;;5042772;28;20301;-50
2023/06/05 08:48:43;;;;;;;2.90;2.60;;;18.20;99.90;;;;;;5043476;28;20217;-51
2023/06/05 08:51:12;;;;;;;3.63;2.40;;;18.30;99.90;;;;;;5021510;28;20215;-50
2023/06/05 08:53:40;;;;;;;2.40;2.10;;;18.40;99.90;;;;;;5038936;28;20208;-46
2023/06/05 08:56:08;;;;;;;3.93;2.30;;;18.60;99.90;;;;;;5041175;28;20803;-45
2023/06/05 08:58:35;;;;;;;4.83;2.20;;;18.70;99.90;;;;;;5036880;28;20711;-52
2023/06/05 09:01:02;;;;;;;2.77;2.20;;;18.90;99.90;;;;;;5031859;28;20229;-51
2023/06/05 09:03:33;;;;;;;4.47;2.20;;;18.90;99.90;;;;;;5031656;28;20199;-48
2023/06/05 09:06:00;;;;;;;4.53;2.50;;;18.90;99.90;;;;;;5033979;28;20260;-49
2023/06/05 09:08:32;;;;;;;4.17;2.20;;;19.10;99.90;;;;;;5039096;28;20203;-52
2023/06/05 09:11:21;;;;;;;6.13;2.70;;;19.10;99.90;;;;;;5035198;28;20261;-50
2023/06/05 09:13:48;;;;;;;3.40;2.20;;;19.20;99.90;;;;;;5031725;28;20221;-50
2023/06/05 09:16:15;;;;;;;5.77;2.40;;;19.00;99.90;;;;;;5029300;28;20223;-47
2023/06/05 09:18:54;;;;;;;4.63;2.23;;;19.00;99.90;;;;;;5036221;28;20705;-51
2023/06/05 09:21:28;;;;;;;4.87;2.43;;;19.20;99.90;;;;;;5045237;28;20270;-50
2023/06/05 09:24:11;;;;;;;3.53;2.13;;;;;;;;;;5022340;28;20210;-49
2023/06/05 09:26:47;;;;;;;3.10;2.00;;;19.50;99.90;;;;;;5037290;28;20249;-49
2023/06/05 09:29:20;;;;;;;3.33;1.87;;;19.50;99.90;;;;;;5026736;28;21321;-48
2023/06/05 09:31:46;;;;;;;2.47;2.27;;;19.70;99.90;;;;;;5035701;28;20290;-46
2023/06/05 09:34:21;;;;;;;3.37;1.83;;;19.90;99.90;;;;;;5042409;28;20246;-50
2023/06/05 09:36:48;;;;;;;4.30;2.10;;;20.00;99.90;;;;;;5032967;28;20234;-51
2023/06/05 09:39:15;;;;;;;6.03;2.43;;;19.90;99.50;;;;;;5032511;28;20219;-46
2023/06/05 09:41:44;;;;;;;3.20;1.90;;;19.80;99.40;;;;;;5034313;28;20306;-50
2023/06/05 09:44:11;;;;;;;2.10;1.80;;;19.80;99.20;;;;;;5025963;28;20265;-49
2023/06/05 09:46:52;;;;;;;5.33;2.47;;;20.10;99.30;;;;;;5036117;28;20227;-46
2023/06/05 09:49:20;;;;;;;3.37;1.93;;;20.10;99.40;;;;;;5036521;28;20208;-53
2023/06/05 09:51:47;;;;;;;3.63;2.10;;;20.10;99.40;;;;;;5042245;28;20642;-51
2023/06/05 09:54:14;;;;;;;3.13;2.00;;;20.30;99.40;;;;;;5023003;28;20242;-52
2023/06/05 09:56:41;;;;;;;2.40;2.20;;;20.50;99.90;;;;;;5029722;28;20880;-49
2023/06/05 09:59:09;;;;;;;3.60;2.33;;;20.60;99.90;;;;;;5026300;28;23128;-52
2023/06/05 10:01:37;;;;;;;2.67;2.23;;;20.60;99.90;;;;;;5037113;28;20199;-53
2023/06/05 10:04:09;;;;;;;3.87;2.33;;;20.70;99.90;;;;;;5032368;28;21116;-49
2023/06/05 10:06:37;;;;;;;4.07;2.10;;;21.00;99.90;;;;;;5042480;28;20222;-50
2023/06/05 10:09:05;;;;;;;2.40;1.97;;;21.00;97.10;;;;;;5009584;28;20223;-51
2023/06/05 10:11:32;;;;;;;4.33;2.10;;;21.00;97.50;;;;;;5035933;28;20256;-48
2023/06/05 10:13:59;;;;;;;2.30;2.20;;;21.20;99.90;;;;;;5030505;28;20211;-51
2023/06/05 10:16:28;;;;;;;4.47;1.90;;;21.10;99.90;;;;;;5030214;28;20298;-47
2023/06/05 10:18:57;;;;;;;3.67;1.93;;;21.10;99.90;;;;;;5037269;28;20211;-49
2023/06/05 10:21:24;;;;;;;3.77;2.27;;;21.10;99.90;;;;;;5037630;28;20293;-48
2023/06/05 10:23:57;;;;;;;2.07;1.87;;;21.10;99.90;;;;;;5016097;28;20284;-52
2023/06/05 10:26:46;;;;;;;1.93;1.73;;;21.10;96.00;;;;;;5032465;28;20714;-51
2023/06/05 10:29:28;;;;;;;1.83;1.57;;;21.20;96.10;;;;;;5033101;28;20245;-48
2023/06/05 10:32:02;;;;;;;3.13;1.90;;;21.20;96.40;;;;;;5028642;28;20198;-50
2023/06/05 10:34:42;;;;;;;2.33;1.80;;;21.40;94.80;;;;;;5033691;28;20812;-51
2023/06/05 10:37:34;;;;;;;4.33;2.20;;;21.50;94.00;;;;;;5032441;28;20215;-50
2023/06/05 10:40:04;;;;;;;4.10;2.03;;;21.50;93.80;;;;;;5009425;28;20223;-49
2023/06/05 10:42:31;;;;;;;4.00;1.93;;;21.80;99.90;;;;;;5039489;28;20207;-47
2023/06/05 10:44:58;;;;;;;4.37;2.10;;;21.30;99.90;;;;;;5033012;28;20211;-49
2023/06/05 10:47:51;;;;;;;2.90;2.00;;;20.70;99.90;;;;;;5033552;28;20230;-49
2023/06/05 10:50:24;;;;;;;3.33;2.03;;;21.30;99.90;;;;;;5035986;28;20195;-52
2023/06/05 10:52:53;;;;;;;4.13;1.90;;;21.80;93.00;;;;;;5026701;28;20269;-53
2023/06/05 10:55:23;;;;;;;1.97;1.40;;;22.10;92.30;;;;;;4996452;28;20989;-49
2023/06/05 10:58:04;;;;;;;4.23;2.03;;;;;;;;;;5036421;28;20709;-49
2023/06/05 11:00:34;;;;;;;2.73;1.80;;;;;;;;;;5021791;28;20363;-53
2023/06/05 11:03:01;;;;;;;3.37;1.80;;;;;;;;;;5026250;28;20563;-52
2023/06/05 11:05:29;;;;;;;2.57;2.00;;;;;;;;;;5028730;28;20219;-53
2023/06/05 11:08:15;;;;;;;5.63;2.00;;;;;;;;;;5034221;28;20218;-54
2023/06/05 11:11:12;;;;;;;2.20;1.60;;;;;;;;;;5012016;28;20799;-50
2023/06/05 11:13:54;;;;;;;3.17;1.73;;;;;;;;;;4992094;28;20223;-52
2023/06/05 11:16:32;;;;;;;3.17;1.87;;;22.60;99.90;;;;;;5025744;28;21176;-54
2023/06/05 11:19:36;;;;;;;3.37;1.80;;;22.50;99.90;;;;;;5016617;28;20218;-54
2023/06/05 11:22:08;;;;;;;3.23;1.80;;;22.50;99.90;;;;;;5027865;28;20266;-47
2023/06/05 11:24:36;;;;;;;3.10;1.87;;;22.50;99.90;;;;;;5040946;28;20272;-48
2023/06/05 11:27:05;;;;;;;2.50;1.63;;;22.60;99.90;;;;;;5016672;28;20429;-51
2023/06/05 11:29:34;;;;;;;2.27;1.53;;;22.70;99.90;;;;;;5040094;28;20937;-48
2023/06/05 11:32:01;;;;;;;2.83;1.90;;;;;;;;;;5020425;28;20222;-53
2023/06/05 11:34:29;;;;;;;3.08;1.92;;;;;;;;;;5016450;28;20253;-48
2023/06/05 11:36:57;;;;;;;2.33;2.10;;;23.30;87.10;;;;;;5026494;28;20280;-49
2023/06/05 11:39:29;;;;;;;2.70;1.95;;;23.40;99.90;;;;;;5038137;28;20273;-54
2023/06/05 11:41:57;;;;;;;1.95;1.80;;;23.30;99.90;;;;;;5015661;28;20280;-54
2023/06/05 11:44:35;;;;;;;4.30;1.70;;;23.30;99.90;;;;;;5037025;28;20195;-53
2023/06/05 11:47:02;;;;;;;3.40;1.80;;;23.30;99.90;;;;;;5031236;28;20232;-51
2023/06/05 11:49:30;;;;;;;5.72;1.90;;;23.20;99.90;;;;;;5020778;28;20321;-52
2023/06/05 11:51:57;;;;;;;2.08;1.70;;;23.30;99.90;;;;;;5036719;28;20257;-51
2023/06/05 11:54:29;;;;;;;1.73;1.63;;;23.40;99.90;;;;;;5040887;28;20622;-53
2023/06/05 11:57:07;;;;;;;3.33;1.52;;;23.00;99.90;;;;;;5021621;28;20302;-52
2023/06/05 11:59:36;;;;;;;3.95;2.13;;;22.90;99.90;;;;;;5034123;28;20211;-52
2023/06/05 12:02:03;;;;;;;3.00;1.48;;;23.00;99.90;;;;;;5029274;28;20202;-52
2023/06/05 12:04:31;;;;;;;4.38;1.92;;;23.00;99.90;;;;;;5031162;28;20200;-50
2023/06/05 12:06:59;;;;;;;1.70;1.60;;;23.20;99.90;;;;;;5032600;28;20227;-46
2023/06/05 12:09:26;;;;;;;2.22;1.75;;;23.20;99.40;;;;;;5040991;28;20200;-46
2023/06/05 12:11:53;;;;;;;1.88;1.77;;;23.20;99.40;;;;;;5044485;28;20207;-48
2023/06/05 12:14:31;;;;;;;2.95;2.17;;;23.20;99.90;;;;;;5011143;28;20211;-51
2023/06/05 12:16:59;;;;;;;4.32;2.08;;;23.30;99.90;;;;;;5030131;28;20229;-51
2023/06/05 12:19:26;;;;;;;6.32;2.00;;;23.20;99.90;;;;;;5033793;28;20222;-52
2023/06/05 12:22:03;;;;;;;2.05;1.80;;;23.00;99.90;;;;;;5033844;28;20195;-52
2023/06/05 12:24:31;;;;;;;3.03;1.73;;;23.00;99.40;;;;;;5041020;28;20795;-52
2023/06/05 12:26:59;;;;;;;3.95;1.85;;;23.00;99.90;;;;;;5044245;28;20254;-51
2023/06/05 12:29:29;;;;;;;3.38;2.00;;;22.90;99.90;;;;;;5010842;28;20195;-49
2023/06/05 12:31:57;;;;;;;3.08;1.80;;;23.00;99.90;;;;;;5036257;28;20257;-50
2023/06/05 12:34:46;;;;;;;4.68;1.88;;;23.00;99.90;;;;;;5028208;28;20206;-52
2023/06/05 12:37:22;;;;;;;4.10;2.22;;;23.10;99.90;;;;;;5028514;28;20748;-51
2023/06/05 12:39:49;;;;;;;2.22;2.13;;;23.30;99.90;;;;;;5044366;28;21455;-53
2023/06/05 12:42:16;;;;;;;1.95;1.60;;;23.60;99.50;;;;;;5036995;28;20279;-53
2023/06/05 12:44:43;;;;;;;2.22;1.58;;;23.80;98.70;;;;;;5011171;28;20219;-53
2023/06/05 12:47:10;;;;;;;2.05;1.73;;;24.10;80.70;;;;;;5035122;28;20635;-50
2023/06/05 12:49:37;;;;;;;2.55;1.98;;;24.20;73.60;;;;;;5028705;28;21585;-51
2023/06/05 12:52:08;;;;;;;3.40;1.80;;;24.40;73.10;;;;;;5031838;28;20203;-53
2023/06/05 12:54:36;;;;;;;2.78;1.50;;;24.70;71.80;;;;;;5040294;28;20191;-51
2023/06/05 12:57:03;;;;;;;3.08;2.30;;;24.80;71.80;;;;;;5035013;28;20218;-52
2023/06/05 12:59:30;;;;;;;2.08;1.40;;;;;;;;;;5011949;28;20268;-51
2023/06/05 13:01:57;;;;;;;3.00;2.05;;;25.90;96.40;;;;;;5034776;28;20191;-49